Time;durP1;ratioP1;P1;durP2;ratioP2;P2;SDS_P1;SDS_P2;PMS_P1;PMS_P2;Temp;Humidity;BMP_temperature;BMP_pressure;BME280_temperature;BME280_humidity;BME280_pressure;Samples;Min_cycle;Max_cycle;Signal;HPM_P1;HPM_P2
2022/05/19 00:01:01;;;;;;;87.15;27.70;;;;;;;;;;5014991;28;20220;-46
2022/05/19 00:03:24;;;;;;;86.15;28.67;;;;;;;;;;5013236;28;20212;-46
2022/05/19 00:05:50;;;;;;;79.18;27.60;;;;;;;;;;5022221;28;20211;-46
2022/05/19 00:08:16;;;;;;;83.35;29.88;;;;;;;;;;5024910;28;20208;-47
2022/05/19 00:10:42;;;;;;;84.35;28.58;;;;;;;;;;5022346;28;20382;-46
2022/05/19 00:13:08;;;;;;;103.47;32.08;;;;;;;;;;5024115;28;20234;-47
2022/05/19 00:15:34;;;;;;;97.25;30.00;;;;;;;;;;5012132;28;20577;-46
2022/05/19 00:17:59;;;;;;;95.50;30.02;;;;;;;;;;5016998;28;20234;-46
2022/05/19 00:20:25;;;;;;;97.57;30.10;;;;;;;;;;5014125;28;20180;-46
2022/05/19 00:22:51;;;;;;;95.97;29.42;;;;;;;;;;5017657;28;20252;-46
2022/05/19 00:25:19;;;;;;;69.63;22.63;;;;;;;;;;5020901;28;20514;-46
2022/05/19 00:27:44;;;;;;;58.05;21.00;;;;;;;;;;5019514;28;20273;-46
2022/05/19 00:30:11;;;;;;;84.45;26.75;;;;;;;;;;5025994;28;20219;-47
2022/05/19 00:32:37;;;;;;;105.25;31.50;;;;;;;;;;5022276;28;20196;-46
2022/05/19 00:35:03;;;;;;;84.80;28.45;;;;;;;;;;5010442;28;20270;-46
2022/05/19 00:37:29;;;;;;;93.85;29.00;;;;;;;;;;5012099;28;20542;-46
2022/05/19 00:39:54;;;;;;;98.55;30.05;;;;;;;;;;5017883;28;20215;-46
2022/05/19 00:45:06;;;;;;;80.15;23.17;;;;;;;;;;5025710;28;20672;-47
2022/05/19 00:47:44;;;;;;;114.43;34.03;;;;;;;;;;5012696;28;20295;-46
2022/05/19 00:50:15;;;;;;;83.25;25.80;;;;;;;;;;5015379;28;20303;-46
2022/05/19 00:52:43;;;;;;;100.35;29.83;;;;;;;;;;5020619;28;20255;-46
2022/05/19 00:55:13;;;;;;;99.55;28.02;;;;;;;;;;5005927;28;20216;-47
2022/05/19 00:57:41;;;;;;;86.47;25.52;;;;;;;;;;5016186;28;20335;-46
2022/05/19 01:00:08;;;;;;;89.93;26.15;;;;;;;;;;5020465;28;20714;-47
2022/05/19 01:02:35;;;;;;;94.72;27.00;;;;;;;;;;5019805;28;20533;-46
2022/05/19 01:05:03;;;;;;;104.70;29.42;;;;;;;;;;5014001;28;20248;-47
2022/05/19 01:07:49;;;;;;;74.72;22.23;;;;;;;;;;5019478;28;20248;-47
2022/05/19 01:10:15;;;;;;;89.40;24.58;;;;;;;;;;4998010;28;20213;-46
2022/05/19 01:12:44;;;;;;;83.72;23.90;;;;;;;;;;5019727;28;20223;-46
2022/05/19 01:15:10;;;;;;;132.32;33.28;;;;;;;;;;5016466;28;20299;-47
2022/05/19 01:17:37;;;;;;;98.95;26.08;;;;;;;;;;5018879;28;20213;-46
2022/05/19 01:20:09;;;;;;;61.53;19.63;;;;;;;;;;5015553;28;20226;-46
2022/05/19 01:22:49;;;;;;;70.25;20.95;;;;;;;;;;5018399;28;20219;-46
2022/05/19 01:25:15;;;;;;;85.43;24.00;;;;;;;;;;5017383;28;20793;-46
2022/05/19 01:27:42;;;;;;;74.78;22.10;;;;;;;;;;5018394;28;20271;-46
2022/05/19 01:30:09;;;;;;;64.75;18.38;;;;;;;;;;5019082;28;20567;-46
2022/05/19 01:32:36;;;;;;;62.33;18.90;;;;;;;;;;5027217;28;20556;-46
2022/05/19 01:35:01;;;;;;;85.00;23.00;;;;;;;;;;5024261;28;20254;-46
2022/05/19 01:37:28;;;;;;;78.63;21.63;;;;;;;;;;5023259;28;20220;-46
2022/05/19 01:39:57;;;;;;;76.78;21.05;;;;;;;;;;5021335;28;20215;-46
2022/05/19 01:42:49;;;;;;;83.30;21.25;;;;;;;;;;5022197;28;20295;-46
2022/05/19 01:45:30;;;;;;;113.07;27.42;;;;;;;;;;5008242;28;20212;-46
2022/05/19 01:48:06;;;;;;;78.18;20.65;;;;;;;;;;5017520;28;20296;-46
2022/05/19 01:50:36;;;;;;;109.88;27.27;;;;;;;;;;5011925;28;20215;-46
2022/05/19 01:53:08;;;;;;;92.68;24.08;;;;;;;;;;5012378;28;20204;-46
2022/05/19 01:55:47;;;;;;;88.30;22.77;;;;;;;;;;5007260;28;20228;-46
2022/05/19 01:58:13;;;;;;;91.15;22.48;;;;;;;;;;5015269;28;20370;-46
2022/05/19 02:00:39;;;;;;;81.55;20.80;;;;;;;;;;5019702;28;20334;-46
2022/05/19 02:03:22;;;;;;;104.32;25.80;;;;;;;;;;5009067;28;20753;-46
2022/05/19 02:05:51;;;;;;;75.30;20.35;;;;;;;;;;5025135;28;20195;-46
2022/05/19 02:08:23;;;;;;;85.63;21.83;;;;;;;;;;5025456;28;20315;-46
2022/05/19 02:10:51;;;;;;;73.10;20.20;;;;;;;;;;5022921;28;20418;-46
2022/05/19 02:13:17;;;;;;;80.25;20.20;;;;;;;;;;5021610;28;20680;-46
2022/05/19 02:15:45;;;;;;;93.40;23.02;;;;;;;;;;5019139;28;20232;-46
2022/05/19 02:18:11;;;;;;;73.35;18.90;;;;;;;;;;5022080;28;20533;-46
2022/05/19 02:20:38;;;;;;;87.05;21.75;;;;;;;;;;5024198;28;20263;-46
2022/05/19 02:23:04;;;;;;;88.63;21.83;;;;;;;;;;5024909;28;20662;-46
2022/05/19 02:25:31;;;;;;;72.30;19.15;;;;;;;;;;5017768;28;20291;-46
2022/05/19 02:28:03;;;;;;;79.07;19.85;;;;;;;;;;5025422;28;20816;-46
2022/05/19 02:30:31;;;;;;;94.20;22.27;;;;;;;;;;5018411;28;20263;-46
2022/05/19 02:32:57;;;;;;;104.18;24.50;;;;;;;;;;5007487;28;20217;-46
2022/05/19 02:35:23;;;;;;;80.00;20.48;;;;;;;;;;5015401;28;20254;-46
2022/05/19 02:37:49;;;;;;;81.85;21.55;;;;;;;;;;5023550;28;20211;-46
2022/05/19 02:40:16;;;;;;;59.95;15.50;;;;;;;;;;5019331;28;20318;-46
2022/05/19 02:42:42;;;;;;;66.80;17.40;;;;;;;;;;5027787;28;20247;-47
2022/05/19 02:45:08;;;;;;;86.95;21.50;;;;;;;;;;5023430;28;20313;-46
2022/05/19 02:47:34;;;;;;;75.90;18.98;;;;;;;;;;5027618;28;20507;-46
2022/05/19 02:50:00;;;;;;;78.15;19.92;;;;;;;;;;5019812;28;20213;-46
2022/05/19 02:52:26;;;;;;;75.47;19.00;;;;;;;;;;5012022;28;20298;-46
2022/05/19 02:54:52;;;;;;;79.25;19.85;;;;;;;;;;5022618;28;20224;-46
2022/05/19 02:57:18;;;;;;;103.78;24.50;;;;;;;;;;5027366;28;20650;-46
2022/05/19 02:59:44;;;;;;;72.38;19.60;;;;;;;;;;5022617;28;20186;-46
2022/05/19 03:02:10;;;;;;;67.78;18.23;;;;;;;;;;5027894;28;20190;-46
2022/05/19 03:04:36;;;;;;;55.35;15.88;;;;;;;;;;5028088;28;20220;-46
2022/05/19 03:07:02;;;;;;;113.30;24.67;;;;;;;;;;5026141;28;20724;-46
2022/05/19 03:09:29;;;;;;;65.78;16.88;;;;;;;;;;5028728;28;20503;-46
2022/05/19 03:11:55;;;;;;;81.38;19.55;;;;;;;;;;5012912;28;20291;-46
2022/05/19 03:14:21;;;;;;;91.15;21.33;;;;;;;;;;5010103;28;20255;-46
2022/05/19 03:16:46;;;;;;;70.45;18.20;;;;;;;;;;5025836;28;20282;-46
2022/05/19 03:19:12;;;;;;;103.97;24.10;;;;;;;;;;5027402;28;20315;-46
2022/05/19 03:21:38;;;;;;;67.60;17.70;;;;;;;;;;5019553;28;20314;-46
2022/05/19 03:24:05;;;;;;;50.78;14.40;;;;;;;;;;5012007;28;20228;-46
2022/05/19 03:26:31;;;;;;;75.13;18.58;;;;;;;;;;5017537;28;20200;-46
2022/05/19 03:28:57;;;;;;;98.25;22.52;;;;;;;;;;5017347;28;20232;-46
2022/05/19 03:31:23;;;;;;;69.68;17.42;;;;;;;;;;5012761;28;20235;-46
2022/05/19 03:33:48;;;;;;;68.55;18.40;;;;;;;;;;5014231;28;20221;-46
2022/05/19 03:36:15;;;;;;;101.32;23.05;;;;;;;;;;5015482;28;20676;-46
2022/05/19 03:38:41;;;;;;;91.15;21.52;;;;;;;;;;5019880;28;20187;-46
2022/05/19 03:41:07;;;;;;;54.65;15.30;;;;;;;;;;5015492;28;20189;-46
2022/05/19 03:43:33;;;;;;;86.05;20.98;;;;;;;;;;5022850;28;20290;-46
2022/05/19 03:46:01;;;;;;;75.35;18.88;;;;;;;;;;5014851;28;20735;-46
2022/05/19 03:48:27;;;;;;;89.43;21.50;;;;;;;;;;5015880;28;20331;-46
2022/05/19 03:50:53;;;;;;;69.70;17.65;;;;;;;;;;5012331;28;20376;-46
2022/05/19 03:53:19;;;;;;;67.82;17.15;;;;;;;;;;5009270;28;20185;-46
2022/05/19 03:55:45;;;;;;;85.20;19.97;;;;;;;;;;5019507;28;20665;-46
2022/05/19 03:58:11;;;;;;;59.50;16.38;;;;;;;;;;5011035;28;20693;-46
2022/05/19 04:00:37;;;;;;;86.13;20.30;;;;;;;;;;5015142;28;20638;-46
2022/05/19 04:03:03;;;;;;;89.07;20.55;;;;;;;;;;5022994;28;20238;-46
2022/05/19 04:05:29;;;;;;;88.47;21.30;;;;;;;;;;5027229;28;20585;-46
2022/05/19 04:07:55;;;;;;;101.82;23.38;;;;;;;;;;5011224;28;20231;-46
2022/05/19 04:10:21;;;;;;;63.67;16.67;;;;;;;;;;5011231;28;20268;-46
2022/05/19 04:12:47;;;;;;;66.07;16.80;;;;;;;;;;5019757;28;20243;-46
2022/05/19 04:15:13;;;;;;;109.93;24.50;;;;;;;;;;5020737;28;20242;-46
2022/05/19 04:17:39;;;;;;;98.13;22.75;;;;;;;;;;5024863;28;20580;-47
2022/05/19 04:20:06;;;;;;;81.78;20.05;;;;;;;;;;5025938;28;20176;-46
2022/05/19 04:22:32;;;;;;;62.45;16.25;;;;;;;;;;5012288;28;20550;-46
2022/05/19 04:25:01;;;;;;;97.53;22.45;;;;;;;;;;5007318;28;20240;-46
2022/05/19 04:27:30;;;;;;;70.07;17.92;;;;;;;;;;5017632;28;20288;-46
2022/05/19 04:29:56;;;;;;;95.38;21.73;;;;;;;;;;5006210;28;20220;-46
2022/05/19 04:32:22;;;;;;;91.50;20.98;;;;;;;;;;5016148;28;20249;-46
2022/05/19 04:34:48;;;;;;;98.43;22.42;;;;;;;;;;5005383;28;20312;-46
2022/05/19 04:37:14;;;;;;;81.75;19.15;;;;;;;;;;5013663;28;20240;-46
2022/05/19 04:39:40;;;;;;;44.05;12.80;;;;;;;;;;5015409;28;20207;-46
2022/05/19 04:42:10;;;;;;;112.72;24.30;;;;;;;;;;5022948;28;20223;-46
2022/05/19 04:44:36;;;;;;;85.32;20.23;;;;;;;;;;5014944;28;20196;-46
2022/05/19 04:47:03;;;;;;;66.78;16.88;;;;;;;;;;5026754;28;20239;-46
2022/05/19 04:49:29;;;;;;;67.88;17.15;;;;;;;;;;5024488;28;20377;-46
2022/05/19 04:51:55;;;;;;;54.30;14.90;;;;;;;;;;5022785;28;20339;-46
2022/05/19 04:54:21;;;;;;;89.88;20.60;;;;;;;;;;5021821;28;20243;-46
2022/05/19 04:56:47;;;;;;;77.03;18.83;;;;;;;;;;5014026;28;20201;-46
2022/05/19 04:59:14;;;;;;;107.32;24.25;;;;;;;;;;5016175;28;20180;-46
2022/05/19 05:01:47;;;;;;;83.30;20.20;;;;;;;;;;5024168;28;20207;-46
2022/05/19 05:04:14;;;;;;;74.13;18.77;;;;;;;;;;5025177;28;20226;-46
2022/05/19 05:06:40;;;;;;;138.80;29.08;;;;;;;;;;5025501;28;20306;-46
2022/05/19 05:09:06;;;;;;;105.57;24.00;;;;;;;;;;5024058;28;20224;-48
2022/05/19 05:11:32;;;;;;;71.07;18.08;;;;;;;;;;5013473;28;20188;-46
2022/05/19 05:13:58;;;;;;;84.43;21.17;;;;;;;;;;5024995;28;20294;-46
2022/05/19 05:16:24;;;;;;;32.90;11.65;;;;;;;;;;5019516;28;20288;-47
2022/05/19 05:18:50;;;;;;;65.10;16.40;;;;;;;;;;5025400;28;20224;-46
2022/05/19 05:21:16;;;;;;;89.97;20.65;;;;;;;;;;5013843;28;20558;-47
2022/05/19 05:23:42;;;;;;;74.30;18.95;;;;;;;;;;5022704;28;20647;-47
2022/05/19 05:26:09;;;;;;;80.68;20.27;;;;;;;;;;5008644;28;20264;-47
2022/05/19 05:28:35;;;;;;;73.28;17.80;;;;;;;;;;5024829;28;20353;-47
2022/05/19 05:31:02;;;;;;;62.20;16.27;;;;;;;;;;5024714;28;20219;-47
2022/05/19 05:33:28;;;;;;;87.85;20.88;;;;;;;;;;5025520;28;20591;-47
2022/05/19 05:35:54;;;;;;;63.85;16.55;;;;;;;;;;5025714;28;20285;-47
2022/05/19 05:38:20;;;;;;;91.20;21.55;;;;;;;;;;5025016;28;20204;-47
2022/05/19 05:40:46;;;;;;;84.90;20.60;;;;;;;;;;5028629;28;20219;-47
2022/05/19 05:43:18;;;;;;;98.47;23.02;;;;;;;;;;5027588;28;20220;-47
2022/05/19 05:45:45;;;;;;;85.57;20.38;;;;;;;;;;5027065;28;20224;-48
2022/05/19 05:48:11;;;;;;;85.55;21.42;;;;;;;;;;5029649;28;20220;-47
2022/05/19 05:50:37;;;;;;;87.38;21.75;;;;;;;;;;5026610;28;20240;-47
2022/05/19 05:53:03;;;;;;;60.28;16.35;;;;;;;;;;5026987;28;20513;-47
2022/05/19 05:55:30;;;;;;;82.47;20.00;;;;;;;;;;5027918;28;20764;-47
2022/05/19 05:57:56;;;;;;;69.78;18.48;;;;;;;;;;5029596;28;20576;-47
2022/05/19 06:00:22;;;;;;;114.75;26.63;;;;;;;;;;5029454;28;20231;-46
2022/05/19 06:02:51;;;;;;;76.47;18.60;;;;;;;;;;5028072;28;20236;-47
2022/05/19 06:05:17;;;;;;;86.13;20.08;;;;;;;;;;5027197;28;20195;-47
2022/05/19 06:07:43;;;;;;;80.45;19.33;;;;;;;;;;5045260;28;20975;-47
2022/05/19 06:10:10;;;;;;;86.55;20.45;;;;;;;;;;5028151;28;20255;-47
2022/05/19 06:12:36;;;;;;;59.83;15.90;;;;;;;;;;5028492;28;20931;-47
2022/05/19 06:15:02;;;;;;;85.57;20.25;;;;;;;;;;5029044;28;20236;-48
2022/05/19 06:17:28;;;;;;;67.10;17.48;;;;;;;;;;5028527;28;20203;-48
2022/05/19 06:19:54;;;;;;;101.78;24.20;;;;;;;;;;5027900;28;20375;-48
2022/05/19 06:22:23;;;;;;;75.88;19.23;;;;;;;;;;5027310;28;20637;-48
2022/05/19 06:24:50;;;;;;;98.93;22.83;;;;;;;;;;5028458;28;20263;-48
2022/05/19 06:27:15;;;;;;;149.95;32.58;;;;;;;;;;5027498;28;20216;-48
2022/05/19 06:29:42;;;;;;;88.63;21.83;;;;;;;;;;5027431;28;20192;-47
2022/05/19 06:32:08;;;;;;;146.48;31.45;;;;;;;;;;5016471;28;20569;-47
2022/05/19 06:34:34;;;;;;;128.63;27.27;;;;;;;;;;5008875;28;20304;-48
2022/05/19 06:37:02;;;;;;;162.52;35.72;;;;;;;;;;5009970;28;20220;-48
2022/05/19 06:39:28;;;;;;;128.70;28.60;;;;;;;;;;5008978;28;20209;-47
2022/05/19 06:42:03;;;;;;;159.63;35.80;;;;;;;;;;5021337;28;20227;-48
2022/05/19 06:44:37;;;;;;;105.70;23.77;;;;;;;;;;5011797;28;20267;-48
2022/05/19 06:47:03;;;;;;;120.45;29.05;;;;;;;;;;5008270;28;20235;-48
2022/05/19 06:49:29;;;;;;;125.43;30.75;;;;;;;;;;5015857;28;20362;-48
2022/05/19 06:51:55;;;;;;;75.43;20.67;;;;;;;;;;5026941;28;20211;-48
2022/05/19 06:54:22;;;;;;;78.90;21.08;;;;;;;;;;5049470;28;20540;-48
2022/05/19 06:56:48;;;;;;;74.18;20.23;;;;;;;;;;5030357;28;20675;-49
2022/05/19 06:59:18;;;;;;;85.35;21.75;;;;;;;;;;5029271;28;20199;-48
2022/05/19 07:01:47;;;;;;;101.35;26.55;;;;;;;;;;5025654;28;20296;-48
2022/05/19 07:04:13;;;;;;;92.70;24.58;;;;;;;;;;5027804;28;20286;-48
2022/05/19 07:06:39;;;;;;;96.30;25.17;;;;;;;;;;5016052;28;20610;-48
2022/05/19 07:09:05;;;;;;;94.15;24.52;;;;;;;;;;5024058;28;20261;-48
2022/05/19 07:11:31;;;;;;;106.40;26.38;;;;;;;;;;5025384;28;20249;-48
2022/05/19 07:13:59;;;;;;;91.25;24.13;;;;;;;;;;5037859;28;20301;-48
2022/05/19 07:16:25;;;;;;;105.07;27.15;;;;;;;;;;5006388;28;20304;-48
2022/05/19 07:18:51;;;;;;;80.82;21.10;;;;;;;;;;5011367;28;20686;-48
2022/05/19 07:21:20;;;;;;;84.20;22.67;;;;;;;;;;5010471;28;20212;-49
2022/05/19 07:23:46;;;;;;;96.40;27.05;;;;;;;;;;5024246;28;20236;-48
2022/05/19 07:26:13;;;;;;;93.82;25.98;;;;;;;;;;5010339;28;20184;-48
2022/05/19 07:28:39;;;;;;;119.30;31.70;;;;;;;;;;5012001;28;20530;-48
2022/05/19 07:31:06;;;;;;;125.13;30.65;;;;;;;;;;5024002;28;20284;-49
2022/05/19 07:33:34;;;;;;;84.40;24.48;;;;;;;;;;5046823;28;20299;-49
2022/05/19 07:36:00;;;;;;;77.35;22.27;;;;;;;;;;5023947;28;20284;-49
2022/05/19 07:38:26;;;;;;;77.05;23.00;;;;;;;;;;5014783;28;20284;-49
2022/05/19 07:40:54;;;;;;;81.78;23.17;;;;;;;;;;5012904;28;20719;-49
2022/05/19 07:43:35;;;;;;;84.82;23.90;;;;;;;;;;5024718;28;20364;-48
2022/05/19 07:46:01;;;;;;;104.90;27.52;;;;;;;;;;5026087;28;20303;-49
2022/05/19 07:48:27;;;;;;;83.72;23.85;;;;;;;;;;5024999;28;20506;-49
2022/05/19 07:50:53;;;;;;;95.18;27.13;;;;;;;;;;5025789;28;20278;-49
2022/05/19 07:53:19;;;;;;;123.75;33.50;;;;;;;;;;5023711;28;20177;-49
2022/05/19 07:55:46;;;;;;;69.57;22.52;;;;;;;;;;5023803;28;20216;-49
2022/05/19 07:58:11;;;;;;;94.22;28.35;;;;;;;;;;5025862;28;20677;-48
2022/05/19 08:00:37;;;;;;;101.72;29.55;;;;;;;;;;5031243;28;20211;-49
2022/05/19 08:03:04;;;;;;;117.82;31.20;;;;;;;;;;5008898;28;20209;-49
2022/05/19 08:05:30;;;;;;;105.45;29.23;;;;;;;;;;5021361;28;20699;-49
2022/05/19 08:07:56;;;;;;;100.35;29.00;;;;;;;;;;5029270;28;20250;-49
2022/05/19 08:10:25;;;;;;;95.35;29.75;;;;;;;;;;5019652;28;20215;-49
2022/05/19 08:15:37;;;;;;;101.45;29.85;;;;;;;;;;5021911;28;20708;-49
2022/05/19 08:18:06;;;;;;;88.45;27.73;;;;;;;;;;5024839;28;20725;-48
2022/05/19 08:20:33;;;;;;;84.85;26.58;;;;;;;;;;5027359;28;20188;-49
2022/05/19 08:22:59;;;;;;;98.57;30.52;;;;;;;;;;5025825;28;20568;-49
2022/05/19 08:25:26;;;;;;;94.03;29.77;;;;;;;;;;5016577;28;20207;-49
2022/05/19 08:27:53;;;;;;;97.75;29.52;;;;;;;;;;5016692;28;20220;-49
2022/05/19 08:30:19;;;;;;;86.80;27.30;;;;;;;;;;5021694;28;20586;-49
2022/05/19 08:32:44;;;;;;;79.57;25.90;;;;;;;;;;5021835;28;20278;-49
2022/05/19 08:35:10;;;;;;;103.25;29.95;;;;;;;;;;5023637;28;20302;-49
2022/05/19 08:37:36;;;;;;;60.38;22.45;;;;;;;;;;5016209;28;20216;-49
2022/05/19 08:40:03;;;;;;;103.30;31.17;;;;;;;;;;5015059;28;20204;-49
2022/05/19 08:42:30;;;;;;;84.45;27.30;;;;;;;;;;5010380;28;20219;-49
2022/05/19 08:44:58;;;;;;;102.85;31.13;;;;;;;;;;5015247;28;20593;-49
2022/05/19 08:47:29;;;;;;;85.72;29.52;;;;;;;;;;5018251;28;20313;-49
2022/05/19 08:50:03;;;;;;;93.63;32.00;;;;;;;;;;5014169;28;20467;-49
2022/05/19 08:52:40;;;;;;;113.35;34.83;;;;;;;;;;5018464;28;20212;-49
2022/05/19 08:55:06;;;;;;;134.32;39.92;;;;;;;;;;5011826;28;20637;-49
2022/05/19 08:57:33;;;;;;;94.47;31.98;;;;;;;;;;5017613;28;20306;-49
2022/05/19 09:00:02;;;;;;;116.32;35.42;;;;;;;;;;5009328;28;20217;-49
2022/05/19 09:02:39;;;;;;;86.25;30.83;;;;;;;;;;5022215;28;20168;-49
2022/05/19 09:05:13;;;;;;;99.72;31.33;;;;;;;;;;5021237;28;20210;-49
2022/05/19 09:08:04;;;;;;;106.50;32.95;;;;;;;;;;5021529;28;20688;-49
2022/05/19 09:10:36;;;;;;;116.40;37.20;;;;;;;;;;5017405;28;20219;-49
2022/05/19 09:13:22;;;;;;;101.78;32.72;;;;;;;;;;5011873;28;20220;-49
2022/05/19 09:15:48;;;;;;;87.15;27.83;;;;;;;;;;5000503;28;20223;-49
2022/05/19 09:18:16;;;;;;;96.70;29.05;;;;;;;;;;5017231;28;20220;-49
2022/05/19 09:20:46;;;;;;;105.38;33.22;;;;;;;;;;5024579;28;20175;-49
2022/05/19 09:23:11;;;;;;;103.90;33.05;;;;;;;;;;5029269;28;20182;-49
2022/05/19 09:25:40;;;;;;;89.03;28.42;;;;;;;;;;5013685;28;20208;-49
2022/05/19 09:28:06;;;;;;;109.10;33.45;;;;;;;;;;5023152;28;20637;-47
2022/05/19 09:30:37;;;;;;;112.68;36.42;;;;;;;;;;5047090;28;20284;-47
2022/05/19 09:33:26;;;;;;;100.28;34.28;;;;;;;;;;5045651;28;20264;-47
2022/05/19 09:35:58;;;;;;;78.93;27.92;;;;;;;;;;5030478;28;20224;-47
2022/05/19 09:38:35;;;;;;;151.88;47.17;;;;;;;;;;5027596;28;20250;-47
2022/05/19 09:41:03;;;;;;;101.97;34.60;;;;;;;;;;5028018;28;20212;-47
2022/05/19 09:43:36;;;;;;;117.82;36.67;;;;;;;;;;5023071;28;20314;-48
2022/05/19 09:46:09;;;;;;;87.63;27.33;;;;;;;;;;5019678;28;20684;-48
2022/05/19 09:48:37;;;;;;;130.45;38.80;;;;;;;;;;5021638;28;20246;-48
2022/05/19 09:51:05;;;;;;;118.05;38.03;;;;;;;;;;5025332;28;20218;-48
2022/05/19 09:53:37;;;;;;;108.65;35.30;;;;;;;;;;5030041;28;20670;-48
2022/05/19 09:56:05;;;;;;;93.95;31.65;;;;;;;;;;5028007;28;20684;-49
2022/05/19 09:58:32;;;;;;;89.60;31.58;;;;;;;;;;5020661;28;20257;-49
2022/05/19 10:01:03;;;;;;;90.53;31.63;;;;;;;;;;5019289;28;20659;-49
2022/05/19 10:03:35;;;;;;;88.70;30.13;;;;;;;;;;5018939;28;20720;-48
2022/05/19 10:06:06;;;;;;;150.85;47.25;;;;;;;;;;5025634;28;20468;-49
2022/05/19 10:08:43;;;;;;;60.85;25.88;;;;;;;;;;5029389;28;20199;-49
2022/05/19 10:11:18;;;;;;;109.25;36.50;;;;;;;;;;5024502;28;20169;-49
2022/05/19 10:13:47;;;;;;;99.75;34.78;;;;;;;;;;5024230;28;20282;-49
2022/05/19 10:16:22;;;;;;;90.78;32.55;;;;;;;;;;5022947;28;20288;-49
2022/05/19 10:18:51;;;;;;;78.75;27.98;;;;;;;;;;5025570;28;20242;-48
2022/05/19 10:21:32;;;;;;;105.38;37.30;;;;;;;;;;5013195;28;20220;-49
2022/05/19 10:24:10;;;;;;;95.70;32.13;;;;;;;;;;5010872;28;20235;-49
2022/05/19 10:26:42;;;;;;;111.38;38.35;;;;;;;;;;5024969;28;20326;-49
2022/05/19 10:32:25;;;;;;;97.38;34.67;;;;;;;;;;5028617;28;20712;-49
2022/05/19 10:35:01;;;;;;;113.88;42.15;;;;;;;;;;5006549;28;20303;-49
2022/05/19 10:37:42;;;;;;;78.07;30.75;;;;;;;;;;5021000;28;20251;-49
2022/05/19 10:40:14;;;;;;;66.00;29.90;;;;;;;;;;5029073;28;20295;-49
2022/05/19 10:42:59;;;;;;;97.10;40.38;;;;;;;;;;5027394;28;20272;-49
2022/05/19 10:45:32;;;;;;;89.03;38.65;;;;;;;;;;5007893;28;20752;-49
2022/05/19 10:48:17;;;;;;;102.28;45.13;;;;;;;;;;5021172;28;20366;-49
2022/05/19 10:50:47;;;;;;;88.65;40.38;;;;;;;;;;5026520;28;20668;-49
2022/05/19 10:53:31;;;;;;;95.07;40.05;;;;;;;;;;5029758;28;20176;-49
2022/05/19 10:56:16;;;;;;;105.85;44.75;;;;;;;;;;5028412;28;20591;-49
2022/05/19 10:58:54;;;;;;;88.72;39.70;;;;;;;;;;5026713;28;20213;-49
2022/05/19 11:01:32;;;;;;;80.22;36.65;;;;;;;;;;5027369;28;20346;-49
2022/05/19 11:03:58;;;;;;;81.47;35.15;;;;;;;;;;5014947;28;20224;-49
2022/05/19 11:06:48;;;;;;;93.97;40.80;;;;;;;;;;5026853;28;20228;-50
2022/05/19 11:09:28;;;;;;;110.32;50.65;;;;;;;;;;5007291;28;20531;-49
2022/05/19 11:12:15;;;;;;;79.88;46.33;;;;;;;;;;5025813;28;20580;-49
2022/05/19 11:15:01;;;;;;;105.30;54.03;;;;;;;;;;5024888;28;20547;-51
2022/05/19 11:17:28;;;;;;;116.38;56.60;;;;;;;;;;5010077;28;20271;-49
2022/05/19 11:20:06;;;;;;;87.15;56.80;;;;;;;;;;5010290;28;20217;-45
2022/05/19 11:22:35;;;;;;;110.35;60.47;;;;;;;;;;5007216;28;20232;-45
2022/05/19 11:27:49;;;;;;;84.60;55.63;;;;;;;;;;5007693;28;20243;-45
2022/05/19 11:30:19;;;;;;;76.65;51.75;;;;;;;;;;5008024;28;20218;-46
2022/05/19 11:32:47;;;;;;;106.00;61.58;;;;;;;;;;5007979;28;20242;-46
2022/05/19 11:35:13;;;;;;;92.45;61.15;;;;;;;;;;5007756;28;20215;-45
2022/05/19 11:37:58;;;;;;;92.35;66.20;;;;;;;;;;5007516;28;20324;-45
2022/05/19 11:40:28;;;;;;;107.18;73.40;;;;;;;;;;5007287;28;20299;-45
2022/05/19 11:42:57;;;;;;;78.47;58.38;;;;;;;;;;5006421;28;20212;-46
2022/05/19 11:45:42;;;;;;;93.25;73.30;;;;;;;;;;5005577;28;20216;-46
2022/05/19 11:57:08;;;;;;;94.93;66.38;;;;;;;;;;4994516;28;20599;-46
2022/05/19 11:59:34;;;;;;;106.72;74.72;;;;;;;;;;5006740;28;20169;-46
2022/05/19 12:02:00;;;;;;;98.45;72.82;;;;;;;;;;5007589;28;20249;-46
2022/05/19 12:04:28;;;;;;;76.55;65.85;;;;;;;;;;5007161;28;20217;-46
2022/05/19 12:07:17;;;;;;;98.07;81.50;;;;;;;;;;5006096;28;20403;-47
2022/05/19 12:09:46;;;;;;;76.50;69.30;;;;;;;;;;4987864;28;20216;-46
2022/05/19 12:12:26;;;;;;;103.45;84.47;;;;;;;;;;5007601;28;20542;-47
2022/05/19 12:15:04;;;;;;;91.15;74.80;;;;;;;;;;5023423;28;20318;-46
2022/05/19 12:17:32;;;;;;;93.70;84.32;;;;;;;;;;5025969;28;20210;-46
2022/05/19 12:20:02;;;;;;;84.13;75.68;;;;;;;;;;5026921;28;20207;-46
2022/05/19 12:22:33;;;;;;;108.30;96.70;;;;;;;;;;5026686;28;20557;-46
2022/05/19 12:25:07;;;;;;;110.60;93.68;;;;;;;;;;5025067;28;20625;-46
2022/05/19 12:27:42;;;;;;;108.05;93.60;;;;;;;;;;5026842;28;20294;-46
2022/05/19 12:33:23;;;;;;;100.30;90.47;;;;;;;;;;5026778;28;20242;-46
2022/05/19 12:35:51;;;;;;;135.30;106.55;;;;;;;;;;5026320;28;20196;-46
2022/05/19 12:38:28;;;;;;;118.70;106.68;;;;;;;;;;5027438;28;20684;-46
2022/05/19 12:40:58;;;;;;;119.40;106.63;;;;;;;;;;5026321;28;20243;-46
2022/05/19 12:43:29;;;;;;;126.25;112.25;;;;;;;;;;5026191;28;20903;-46
2022/05/19 12:45:57;;;;;;;116.65;102.22;;;;;;;;;;5026297;28;20211;-46
2022/05/19 12:48:25;;;;;;;119.72;107.68;;;;;;;;;;5025856;28;20294;-46
2022/05/19 12:51:08;;;;;;;121.75;109.38;;;;;;;;;;5027121;28;20326;-46
2022/05/19 12:53:42;;;;;;;120.45;110.10;;;;;;;;;;5026592;28;20204;-46
2022/05/19 12:56:08;;;;;;;142.82;128.20;;;;;;;;;;5026828;28;20195;-46
2022/05/19 12:58:34;;;;;;;168.68;141.57;;;;;;;;;;5026018;28;20223;-46
2022/05/19 13:01:13;;;;;;;176.85;148.23;;;;;;;;;;5020516;28;20209;-49
2022/05/19 13:03:41;;;;;;;150.68;137.13;;;;;;;;;;5023342;28;20691;-49
2022/05/19 13:06:07;;;;;;;159.38;144.98;;;;;;;;;;5025000;28;20204;-49
2022/05/19 13:08:37;;;;;;;168.18;154.52;;;;;;;;;;5024464;28;20818;-49
2022/05/19 13:11:09;;;;;;;176.23;158.82;;;;;;;;;;5025576;28;20307;-49
2022/05/19 13:13:42;;;;;;;187.20;170.52;;;;;;;;;;5023571;28;20219;-48
2022/05/19 13:16:14;;;;;;;182.55;166.82;;;;;;;;;;5024810;28;20243;-49
2022/05/19 13:18:42;;;;;;;189.13;173.65;;;;;;;;;;5025484;28;20614;-49
2022/05/19 13:21:11;;;;;;;221.55;199.55;;;;;;;;;;5025209;28;20625;-49
2022/05/19 13:23:40;;;;;;;192.85;178.10;;;;;;;;;;5025460;28;20210;-49
2022/05/19 13:26:16;;;;;;;200.38;185.00;;;;;;;;;;5023987;28;20251;-49
2022/05/19 13:31:48;;;;;;;263.00;232.48;;;;;;;;;;5008568;28;20669;-51
2022/05/19 13:34:14;;;;;;;243.43;218.73;;;;;;;;;;4992390;28;20299;-51
2022/05/19 13:36:41;;;;;;;243.57;219.50;;;;;;;;;;4987110;28;20232;-52
2022/05/19 13:39:12;;;;;;;229.15;206.07;;;;;;;;;;5001644;28;20311;-51
2022/05/19 13:41:45;;;;;;;220.80;202.07;;;;;;;;;;5003091;28;20181;-51
2022/05/19 13:44:12;;;;;;;274.27;233.90;;;;;;;;;;4996082;28;20209;-52
2022/05/19 13:46:39;;;;;;;237.60;216.23;;;;;;;;;;5008587;28;20222;-51
2022/05/19 13:49:07;;;;;;;219.77;198.90;;;;;;;;;;5004511;28;20215;-51
2022/05/19 13:51:41;;;;;;;222.10;200.07;;;;;;;;;;4998972;28;20224;-52
2022/05/19 13:54:09;;;;;;;316.30;243.77;;;;;;;;;;4994780;28;20224;-51
2022/05/19 13:56:36;;;;;;;252.02;229.65;;;;;;;;;;4989657;28;20255;-52
2022/05/19 13:59:03;;;;;;;266.67;241.35;;;;;;;;;;4982484;28;20238;-53
2022/05/19 14:01:31;;;;;;;319.85;285.65;;;;;;;;;;4997088;28;20223;-53
2022/05/19 14:03:58;;;;;;;323.63;289.00;;;;;;;;;;4993314;28;20319;-53
2022/05/19 14:06:26;;;;;;;343.95;313.20;;;;;;;;;;4993738;28;20776;-53
2022/05/19 14:08:53;;;;;;;339.77;310.77;;;;;;;;;;5010386;28;20231;-53
2022/05/19 14:11:19;;;;;;;327.42;302.33;;;;;;;;;;5011711;28;20264;-53
2022/05/19 14:13:45;;;;;;;337.65;311.00;;;;;;;;;;5014327;28;20713;-52
2022/05/19 14:16:16;;;;;;;327.67;302.10;;;;;;;;;;5010162;28;20339;-53
2022/05/19 14:18:46;;;;;;;329.77;302.20;;;;;;;;;;5011114;28;20224;-53
2022/05/19 14:21:13;;;;;;;336.40;309.13;;;;;;;;;;5011250;28;20654;-53
2022/05/19 14:23:47;;;;;;;354.27;325.88;;;;;;;;;;5001844;28;20613;-53
2022/05/19 14:26:14;;;;;;;381.95;348.95;;;;;;;;;;5001213;28;20245;-53
2022/05/19 14:28:42;;;;;;;365.38;335.10;;;;;;;;;;5005899;28;20429;-53
2022/05/19 14:31:13;;;;;;;386.98;353.75;;;;;;;;;;5004624;28;20656;-53
2022/05/19 14:33:57;;;;;;;363.17;334.42;;;;;;;;;;5001386;28;20227;-53
2022/05/19 14:36:25;;;;;;;412.10;373.23;;;;;;;;;;4999272;28;20311;-54
2022/05/19 14:38:54;;;;;;;411.10;376.05;;;;;;;;;;5001678;28;20259;-53
2022/05/19 14:44:33;;;;;;;442.48;402.77;;;;;;;;;;5000664;28;20582;-53
2022/05/19 14:47:01;;;;;;;431.30;396.85;;;;;;;;;;5003722;28;20235;-54
2022/05/19 14:49:31;;;;;;;457.90;420.10;;;;;;;;;;4997749;28;20221;-53
2022/05/19 14:51:57;;;;;;;494.35;452.20;;;;;;;;;;5002309;28;20684;-53